sensor_id;sensor_type;location;lat;lon;timestamp;P1;durP1;ratioP1;P2;durP2;ratioP2
12222;SDS011;6174;49.058;8.524;2023-09-19T05:00:09;4.33;;;2.50;;
12222;SDS011;6174;49.058;8.524;2023-09-19T05:02:56;2.90;;;1.93;;
12222;SDS011;6174;49.058;8.524;2023-09-19T05:05:23;3.20;;;2.00;;
12222;SDS011;6174;49.058;8.524;2023-09-19T05:07:51;2.90;;;2.07;;
12222;SDS011;6174;49.058;8.524;2023-09-19T05:10:19;3.57;;;2.00;;
12222;SDS011;6174;49.058;8.524;2023-09-19T05:12:46;3.47;;;1.70;;
12222;SDS011;6174;49.058;8.524;2023-09-19T05:15:18;3.30;;;1.77;;
12222;SDS011;6174;49.058;8.524;2023-09-19T05:17:47;1.80;;;1.70;;
12222;SDS011;6174;49.058;8.524;2023-09-19T05:20:19;3.63;;;1.80;;
12222;SDS011;6174;49.058;8.524;2023-09-19T05:22:57;3.60;;;2.10;;
12222;SDS011;6174;49.058;8.524;2023-09-19T05:25:32;2.53;;;1.77;;
12222;SDS011;6174;49.058;8.524;2023-09-19T05:28:16;3.23;;;1.93;;
12222;SDS011;6174;49.058;8.524;2023-09-19T05:30:47;2.97;;;1.60;;
12222;SDS011;6174;49.058;8.524;2023-09-19T05:36:00;2.53;;;2.00;;
12222;SDS011;6174;49.058;8.524;2023-09-19T05:38:29;3.63;;;1.90;;
12222;SDS011;6174;49.058;8.524;2023-09-19T05:40:56;4.37;;;1.90;;
12222;SDS011;6174;49.058;8.524;2023-09-19T05:43:23;2.00;;;1.70;;
12222;SDS011;6174;49.058;8.524;2023-09-19T05:48:39;4.70;;;2.20;;
12222;SDS011;6174;49.058;8.524;2023-09-19T05:51:16;2.93;;;2.00;;
12222;SDS011;6174;49.058;8.524;2023-09-19T05:54:13;3.40;;;1.93;;
12222;SDS011;6174;49.058;8.524;2023-09-19T06:00:10;2.80;;;2.10;;
12222;SDS011;6174;49.058;8.524;2023-09-19T06:05:58;3.63;;;2.23;;
12222;SDS011;6174;49.058;8.524;2023-09-19T06:09:45;3.20;;;2.00;;
12222;SDS011;6174;49.058;8.524;2023-09-19T06:12:10;4.10;;;2.50;;
12222;SDS011;6174;49.058;8.524;2023-09-19T06:14:42;3.40;;;2.07;;
12222;SDS011;6174;49.058;8.524;2023-09-19T06:17:25;4.60;;;2.20;;
12222;SDS011;6174;49.058;8.524;2023-09-19T06:20:27;4.13;;;2.30;;
12222;SDS011;6174;49.058;8.524;2023-09-19T06:22:56;5.47;;;2.33;;
12222;SDS011;6174;49.058;8.524;2023-09-19T06:25:27;2.20;;;2.00;;
12222;SDS011;6174;49.058;8.524;2023-09-19T06:28:07;4.07;;;2.10;;
12222;SDS011;6174;49.058;8.524;2023-09-19T06:30:48;3.37;;;2.13;;
12222;SDS011;6174;49.058;8.524;2023-09-19T06:33:16;2.37;;;2.13;;
12222;SDS011;6174;49.058;8.524;2023-09-19T06:35:45;3.43;;;2.00;;
12222;SDS011;6174;49.058;8.524;2023-09-19T06:38:29;2.77;;;1.90;;
12222;SDS011;6174;49.058;8.524;2023-09-19T06:41:01;3.77;;;2.00;;
12222;SDS011;6174;49.058;8.524;2023-09-19T06:43:55;2.83;;;1.80;;
12222;SDS011;6174;49.058;8.524;2023-09-19T06:46:28;3.70;;;1.97;;
12222;SDS011;6174;49.058;8.524;2023-09-19T06:49:11;4.67;;;1.80;;
12222;SDS011;6174;49.058;8.524;2023-09-19T06:51:39;3.07;;;2.00;;
12222;SDS011;6174;49.058;8.524;2023-09-19T06:54:22;3.87;;;2.03;;
12222;SDS011;6174;49.058;8.524;2023-09-19T06:56:56;2.80;;;2.10;;
12222;SDS011;6174;49.058;8.524;2023-09-19T06:59:23;3.27;;;2.10;;
12222;SDS011;6174;49.058;8.524;2023-09-19T07:02:23;5.40;;;2.33;;
12222;SDS011;6174;49.058;8.524;2023-09-19T07:04:53;2.00;;;1.80;;
12222;SDS011;6174;49.058;8.524;2023-09-19T07:07:30;2.70;;;2.03;;
12222;SDS011;6174;49.058;8.524;2023-09-19T07:10:01;2.83;;;1.80;;
12222;SDS011;6174;49.058;8.524;2023-09-19T07:12:31;3.07;;;1.83;;
12222;SDS011;6174;49.058;8.524;2023-09-19T07:15:09;2.97;;;1.87;;
12222;SDS011;6174;49.058;8.524;2023-09-19T07:17:41;4.00;;;2.00;;
12222;SDS011;6174;49.058;8.524;2023-09-19T07:20:08;3.97;;;2.13;;
12222;SDS011;6174;49.058;8.524;2023-09-19T07:22:41;3.60;;;2.00;;
12222;SDS011;6174;49.058;8.524;2023-09-19T07:25:11;2.37;;;1.90;;
12222;SDS011;6174;49.058;8.524;2023-09-19T07:27:46;2.70;;;1.70;;
12222;SDS011;6174;49.058;8.524;2023-09-19T07:30:14;3.00;;;1.73;;
12222;SDS011;6174;49.058;8.524;2023-09-19T07:32:41;3.50;;;1.80;;
12222;SDS011;6174;49.058;8.524;2023-09-19T07:35:11;3.83;;;2.17;;
12222;SDS011;6174;49.058;8.524;2023-09-19T07:38:18;3.03;;;1.90;;
12222;SDS011;6174;49.058;8.524;2023-09-19T07:40:59;3.80;;;1.80;;
12222;SDS011;6174;49.058;8.524;2023-09-19T07:43:30;3.37;;;1.80;;
12222;SDS011;6174;49.058;8.524;2023-09-19T07:46:02;3.53;;;1.67;;
12222;SDS011;6174;49.058;8.524;2023-09-19T07:48:31;2.87;;;1.67;;
12222;SDS011;6174;49.058;8.524;2023-09-19T07:51:07;3.80;;;1.77;;
12222;SDS011;6174;49.058;8.524;2023-09-19T07:53:39;2.70;;;1.60;;
12222;SDS011;6174;49.058;8.524;2023-09-19T07:56:08;3.90;;;1.97;;
12222;SDS011;6174;49.058;8.524;2023-09-19T07:58:48;2.23;;;1.50;;
12222;SDS011;6174;49.058;8.524;2023-09-19T08:01:15;3.80;;;1.60;;
12222;SDS011;6174;49.058;8.524;2023-09-19T08:03:42;2.87;;;1.63;;
12222;SDS011;6174;49.058;8.524;2023-09-19T08:06:10;2.47;;;1.70;;
12222;SDS011;6174;49.058;8.524;2023-09-19T08:08:38;2.83;;;1.50;;
12222;SDS011;6174;49.058;8.524;2023-09-19T08:16:19;2.73;;;1.67;;
12222;SDS011;6174;49.058;8.524;2023-09-19T08:22:30;3.97;;;1.70;;
12222;SDS011;6174;49.058;8.524;2023-09-19T08:25:07;3.00;;;1.53;;
12222;SDS011;6174;49.058;8.524;2023-09-19T08:29:08;2.13;;;1.53;;
12222;SDS011;6174;49.058;8.524;2023-09-19T08:31:25;5.10;;;1.93;;
12222;SDS011;6174;49.058;8.524;2023-09-19T08:33:54;3.37;;;1.87;;
12222;SDS011;6174;49.058;8.524;2023-09-19T08:42:53;3.27;;;1.57;;
12222;SDS011;6174;49.058;8.524;2023-09-19T08:45:36;3.47;;;1.40;;
12222;SDS011;6174;49.058;8.524;2023-09-19T08:48:11;2.83;;;1.70;;
12222;SDS011;6174;49.058;8.524;2023-09-19T08:57:59;2.27;;;1.57;;
12222;SDS011;6174;49.058;8.524;2023-09-19T09:00:29;2.50;;;1.40;;
12222;SDS011;6174;49.058;8.524;2023-09-19T09:06:53;2.67;;;1.47;;
12222;SDS011;6174;49.058;8.524;2023-09-19T09:09:30;2.17;;;1.60;;
12222;SDS011;6174;49.058;8.524;2023-09-19T09:11:57;3.23;;;1.47;;
12222;SDS011;6174;49.058;8.524;2023-09-19T09:14:25;2.43;;;1.43;;
12222;SDS011;6174;49.058;8.524;2023-09-19T09:16:53;1.30;;;1.20;;
12222;SDS011;6174;49.058;8.524;2023-09-19T09:19:38;1.90;;;1.37;;
12222;SDS011;6174;49.058;8.524;2023-09-19T09:22:25;2.77;;;1.27;;
12222;SDS011;6174;49.058;8.524;2023-09-19T09:24:52;2.00;;;1.30;;
12222;SDS011;6174;49.058;8.524;2023-09-19T09:30:47;3.63;;;1.70;;
12222;SDS011;6174;49.058;8.524;2023-09-19T09:34:12;2.43;;;1.47;;
12222;SDS011;6174;49.058;8.524;2023-09-19T09:43:02;3.57;;;1.70;;
12222;SDS011;6174;49.058;8.524;2023-09-19T09:45:38;4.07;;;1.50;;
12222;SDS011;6174;49.058;8.524;2023-09-19T09:48:23;3.47;;;1.60;;
12222;SDS011;6174;49.058;8.524;2023-09-19T09:54:14;3.03;;;1.50;;
12222;SDS011;6174;49.058;8.524;2023-09-19T09:57:22;4.00;;;1.20;;
12222;SDS011;6174;49.058;8.524;2023-09-19T10:03:24;2.37;;;1.30;;
12222;SDS011;6174;49.058;8.524;2023-09-19T10:06:40;1.67;;;1.20;;
12222;SDS011;6174;49.058;8.524;2023-09-19T10:09:12;2.53;;;1.63;;
12222;SDS011;6174;49.058;8.524;2023-09-19T10:11:46;3.17;;;1.37;;
12222;SDS011;6174;49.058;8.524;2023-09-19T10:14:22;1.53;;;1.33;;
12222;SDS011;6174;49.058;8.524;2023-09-19T10:16:56;2.50;;;1.53;;
12222;SDS011;6174;49.058;8.524;2023-09-19T10:19:45;4.07;;;1.43;;
12222;SDS011;6174;49.058;8.524;2023-09-19T10:22:44;1.70;;;1.30;;
12222;SDS011;6174;49.058;8.524;2023-09-19T10:25:22;4.00;;;1.60;;
12222;SDS011;6174;49.058;8.524;2023-09-19T10:27:54;4.03;;;1.53;;
12222;SDS011;6174;49.058;8.524;2023-09-19T10:30:24;3.63;;;1.40;;
12222;SDS011;6174;49.058;8.524;2023-09-19T10:33:00;3.43;;;1.83;;
12222;SDS011;6174;49.058;8.524;2023-09-19T10:35:47;1.60;;;1.37;;
12222;SDS011;6174;49.058;8.524;2023-09-19T10:38:24;2.07;;;1.50;;
12222;SDS011;6174;49.058;8.524;2023-09-19T10:41:14;2.53;;;1.37;;
12222;SDS011;6174;49.058;8.524;2023-09-19T10:43:42;4.27;;;1.63;;
12222;SDS011;6174;49.058;8.524;2023-09-19T10:46:11;2.87;;;2.17;;
12222;SDS011;6174;49.058;8.524;2023-09-19T10:48:39;2.50;;;1.90;;
12222;SDS011;6174;49.058;8.524;2023-09-19T10:51:22;3.60;;;2.20;;
12222;SDS011;6174;49.058;8.524;2023-09-19T10:53:56;3.77;;;1.90;;
12222;SDS011;6174;49.058;8.524;2023-09-19T10:56:30;2.27;;;1.50;;
12222;SDS011;6174;49.058;8.524;2023-09-19T10:59:08;4.37;;;1.60;;
12222;SDS011;6174;49.058;8.524;2023-09-19T11:01:49;5.83;;;1.90;;
12222;SDS011;6174;49.058;8.524;2023-09-19T11:04:20;2.83;;;1.50;;
12222;SDS011;6174;49.058;8.524;2023-09-19T11:07:03;1.93;;;1.47;;
12222;SDS011;6174;49.058;8.524;2023-09-19T11:09:47;2.40;;;2.20;;
12222;SDS011;6174;49.058;8.524;2023-09-19T11:21:40;4.30;;;1.60;;
12222;SDS011;6174;49.058;8.524;2023-09-19T11:24:31;2.83;;;1.50;;
12222;SDS011;6174;49.058;8.524;2023-09-19T11:27:14;2.13;;;1.33;;
12222;SDS011;6174;49.058;8.524;2023-09-19T11:29:43;2.40;;;1.50;;
12222;SDS011;6174;49.058;8.524;2023-09-19T11:32:10;1.77;;;1.43;;
12222;SDS011;6174;49.058;8.524;2023-09-19T11:34:44;2.83;;;1.83;;
12222;SDS011;6174;49.058;8.524;2023-09-19T11:47:09;3.10;;;2.03;;
12222;SDS011;6174;49.058;8.524;2023-09-19T11:49:40;4.63;;;1.70;;
12222;SDS011;6174;49.058;8.524;2023-09-19T11:52:07;2.60;;;1.60;;
12222;SDS011;6174;49.058;8.524;2023-09-19T11:54:45;1.50;;;1.40;;
12222;SDS011;6174;49.058;8.524;2023-09-19T11:57:21;2.43;;;1.43;;
12222;SDS011;6174;49.058;8.524;2023-09-19T12:03:17;1.80;;;1.50;;
12222;SDS011;6174;49.058;8.524;2023-09-19T12:05:46;3.27;;;1.60;;
12222;SDS011;6174;49.058;8.524;2023-09-19T12:08:16;3.57;;;1.47;;
12222;SDS011;6174;49.058;8.524;2023-09-19T12:10:50;3.20;;;1.50;;
12222;SDS011;6174;49.058;8.524;2023-09-19T12:13:31;1.83;;;1.30;;
12222;SDS011;6174;49.058;8.524;2023-09-19T12:16:00;2.50;;;1.50;;
12222;SDS011;6174;49.058;8.524;2023-09-19T12:18:28;2.73;;;1.53;;
12222;SDS011;6174;49.058;8.524;2023-09-19T12:20:56;2.37;;;1.30;;
12222;SDS011;6174;49.058;8.524;2023-09-19T12:23:37;1.40;;;1.30;;
12222;SDS011;6174;49.058;8.524;2023-09-19T12:26:06;3.33;;;1.60;;
12222;SDS011;6174;49.058;8.524;2023-09-19T12:28:38;2.40;;;1.43;;
12222;SDS011;6174;49.058;8.524;2023-09-19T12:31:08;1.90;;;1.40;;
12222;SDS011;6174;49.058;8.524;2023-09-19T12:33:41;2.03;;;1.53;;
12222;SDS011;6174;49.058;8.524;2023-09-19T12:36:19;1.47;;;1.30;;
12222;SDS011;6174;49.058;8.524;2023-09-19T12:38:50;1.47;;;1.33;;
12222;SDS011;6174;49.058;8.524;2023-09-19T12:41:26;1.73;;;1.40;;
12222;SDS011;6174;49.058;8.524;2023-09-19T12:43:53;1.67;;;1.20;;
12222;SDS011;6174;49.058;8.524;2023-09-19T12:46:34;4.37;;;1.70;;
12222;SDS011;6174;49.058;8.524;2023-09-19T12:49:20;3.80;;;1.67;;
12222;SDS011;6174;49.058;8.524;2023-09-19T12:51:54;2.23;;;1.30;;
12222;SDS011;6174;49.058;8.524;2023-09-19T12:54:24;2.50;;;1.50;;
12222;SDS011;6174;49.058;8.524;2023-09-19T12:56:51;1.73;;;1.40;;
12222;SDS011;6174;49.058;8.524;2023-09-19T13:02:05;2.10;;;1.20;;
12222;SDS011;6174;49.058;8.524;2023-09-19T13:04:43;1.33;;;1.23;;
12222;SDS011;6174;49.058;8.524;2023-09-19T13:10:08;1.13;;;1.03;;
12222;SDS011;6174;49.058;8.524;2023-09-19T13:12:41;2.70;;;1.40;;
12222;SDS011;6174;49.058;8.524;2023-09-19T13:15:12;2.20;;;1.40;;
12222;SDS011;6174;49.058;8.524;2023-09-19T13:17:43;2.07;;;1.40;;
12222;SDS011;6174;49.058;8.524;2023-09-19T13:20:21;2.93;;;1.30;;
12222;SDS011;6174;49.058;8.524;2023-09-19T13:22:54;2.07;;;1.53;;
12222;SDS011;6174;49.058;8.524;2023-09-19T13:25:24;2.27;;;1.50;;
12222;SDS011;6174;49.058;8.524;2023-09-19T13:27:54;1.17;;;1.10;;
12222;SDS011;6174;49.058;8.524;2023-09-19T13:30:22;4.47;;;1.40;;
12222;SDS011;6174;49.058;8.524;2023-09-19T13:32:51;1.83;;;1.30;;
12222;SDS011;6174;49.058;8.524;2023-09-19T13:35:18;1.40;;;1.30;;
12222;SDS011;6174;49.058;8.524;2023-09-19T13:37:47;3.43;;;1.60;;
12222;SDS011;6174;49.058;8.524;2023-09-19T13:40:16;2.33;;;1.40;;
12222;SDS011;6174;49.058;8.524;2023-09-19T13:42:43;2.73;;;1.37;;
12222;SDS011;6174;49.058;8.524;2023-09-19T13:45:10;2.80;;;1.50;;
12222;SDS011;6174;49.058;8.524;2023-09-19T13:47:40;1.90;;;1.50;;
12222;SDS011;6174;49.058;8.524;2023-09-19T13:50:18;1.40;;;1.30;;
12222;SDS011;6174;49.058;8.524;2023-09-19T13:52:50;1.97;;;1.40;;
12222;SDS011;6174;49.058;8.524;2023-09-19T13:55:19;4.30;;;1.70;;
12222;SDS011;6174;49.058;8.524;2023-09-19T13:57:47;1.73;;;1.40;;
12222;SDS011;6174;49.058;8.524;2023-09-19T14:00:15;1.40;;;1.30;;
12222;SDS011;6174;49.058;8.524;2023-09-19T14:02:46;1.50;;;1.30;;
12222;SDS011;6174;49.058;8.524;2023-09-19T14:05:13;1.63;;;1.20;;
12222;SDS011;6174;49.058;8.524;2023-09-19T14:07:41;2.07;;;1.20;;
12222;SDS011;6174;49.058;8.524;2023-09-19T14:10:11;2.63;;;1.70;;
12222;SDS011;6174;49.058;8.524;2023-09-19T14:12:38;1.53;;;1.40;;
12222;SDS011;6174;49.058;8.524;2023-09-19T14:15:06;1.93;;;1.43;;
12222;SDS011;6174;49.058;8.524;2023-09-19T14:17:34;2.47;;;1.23;;
12222;SDS011;6174;49.058;8.524;2023-09-19T14:20:01;1.10;;;1.00;;
12222;SDS011;6174;49.058;8.524;2023-09-19T14:22:31;1.40;;;1.30;;
12222;SDS011;6174;49.058;8.524;2023-09-19T14:25:16;2.33;;;1.40;;
12222;SDS011;6174;49.058;8.524;2023-09-19T14:27:50;2.07;;;1.40;;
12222;SDS011;6174;49.058;8.524;2023-09-19T14:33:14;1.00;;;1.00;;
12222;SDS011;6174;49.058;8.524;2023-09-19T14:35:55;4.13;;;1.20;;
12222;SDS011;6174;49.058;8.524;2023-09-19T14:38:27;1.57;;;1.10;;
12222;SDS011;6174;49.058;8.524;2023-09-19T14:41:01;1.90;;;1.10;;
12222;SDS011;6174;49.058;8.524;2023-09-19T14:43:50;3.03;;;1.27;;
12222;SDS011;6174;49.058;8.524;2023-09-19T14:46:28;1.80;;;1.20;;
12222;SDS011;6174;49.058;8.524;2023-09-19T14:49:24;1.07;;;0.97;;
12222;SDS011;6174;49.058;8.524;2023-09-19T14:51:59;1.27;;;1.10;;
12222;SDS011;6174;49.058;8.524;2023-09-19T14:54:29;1.17;;;1.00;;
12222;SDS011;6174;49.058;8.524;2023-09-19T14:56:57;1.33;;;1.10;;
12222;SDS011;6174;49.058;8.524;2023-09-19T14:59:29;1.30;;;1.20;;
12222;SDS011;6174;49.058;8.524;2023-09-19T15:01:56;1.30;;;1.20;;
12222;SDS011;6174;49.058;8.524;2023-09-19T15:04:24;1.00;;;1.00;;
12222;SDS011;6174;49.058;8.524;2023-09-19T15:06:53;1.30;;;1.10;;
12222;SDS011;6174;49.058;8.524;2023-09-19T15:09:20;1.50;;;1.17;;
12222;SDS011;6174;49.058;8.524;2023-09-19T15:11:55;1.60;;;1.30;;
12222;SDS011;6174;49.058;8.524;2023-09-19T15:14:26;2.47;;;1.20;;
12222;SDS011;6174;49.058;8.524;2023-09-19T15:16:54;1.73;;;1.10;;
12222;SDS011;6174;49.058;8.524;2023-09-19T15:19:21;1.37;;;1.27;;
12222;SDS011;6174;49.058;8.524;2023-09-19T15:21:48;0.95;;;0.90;;
12222;SDS011;6174;49.058;8.524;2023-09-19T15:24:15;2.00;;;1.07;;
12222;SDS011;6174;49.058;8.524;2023-09-19T15:26:43;1.02;;;1.02;;
12222;SDS011;6174;49.058;8.524;2023-09-19T15:29:12;1.52;;;1.20;;
12222;SDS011;6174;49.058;8.524;2023-09-19T15:31:39;1.98;;;1.13;;
12222;SDS011;6174;49.058;8.524;2023-09-19T15:34:06;2.67;;;1.23;;
12222;SDS011;6174;49.058;8.524;2023-09-19T15:36:34;1.20;;;1.10;;
12222;SDS011;6174;49.058;8.524;2023-09-19T15:39:02;1.20;;;1.10;;
12222;SDS011;6174;49.058;8.524;2023-09-19T15:41:31;1.90;;;1.10;;
12222;SDS011;6174;49.058;8.524;2023-09-19T15:44:02;1.43;;;1.00;;
12222;SDS011;6174;49.058;8.524;2023-09-19T15:46:32;3.27;;;1.40;;
12222;SDS011;6174;49.058;8.524;2023-09-19T15:48:59;1.30;;;1.20;;
12222;SDS011;6174;49.058;8.524;2023-09-19T15:51:27;1.40;;;1.17;;
12222;SDS011;6174;49.058;8.524;2023-09-19T15:53:54;2.43;;;1.20;;
12222;SDS011;6174;49.058;8.524;2023-09-19T15:56:22;1.47;;;1.37;;
12222;SDS011;6174;49.058;8.524;2023-09-19T15:58:50;1.13;;;1.03;;
12222;SDS011;6174;49.058;8.524;2023-09-19T16:01:18;1.27;;;1.00;;
12222;SDS011;6174;49.058;8.524;2023-09-19T16:03:48;1.83;;;1.00;;
12222;SDS011;6174;49.058;8.524;2023-09-19T16:06:17;1.20;;;1.10;;
12222;SDS011;6174;49.058;8.524;2023-09-19T16:08:46;1.27;;;1.17;;
12222;SDS011;6174;49.058;8.524;2023-09-19T16:11:14;1.90;;;1.30;;
12222;SDS011;6174;49.058;8.524;2023-09-19T16:13:43;1.93;;;1.30;;
12222;SDS011;6174;49.058;8.524;2023-09-19T16:16:11;2.17;;;1.27;;
12222;SDS011;6174;49.058;8.524;2023-09-19T16:18:40;1.53;;;1.20;;
12222;SDS011;6174;49.058;8.524;2023-09-19T16:21:12;1.80;;;1.50;;
12222;SDS011;6174;49.058;8.524;2023-09-19T16:23:39;1.23;;;1.13;;
12222;SDS011;6174;49.058;8.524;2023-09-19T16:26:07;1.30;;;1.13;;
12222;SDS011;6174;49.058;8.524;2023-09-19T16:28:35;1.20;;;1.03;;
12222;SDS011;6174;49.058;8.524;2023-09-19T16:31:02;1.40;;;1.30;;
12222;SDS011;6174;49.058;8.524;2023-09-19T16:33:31;1.20;;;1.10;;
12222;SDS011;6174;49.058;8.524;2023-09-19T16:35:58;2.43;;;1.20;;
12222;SDS011;6174;49.058;8.524;2023-09-19T16:38:27;1.60;;;1.30;;
12222;SDS011;6174;49.058;8.524;2023-09-19T16:40:57;1.23;;;1.13;;
12222;SDS011;6174;49.058;8.524;2023-09-19T16:43:25;1.07;;;1.07;;
12222;SDS011;6174;49.058;8.524;2023-09-19T16:45:52;1.30;;;1.20;;
12222;SDS011;6174;49.058;8.524;2023-09-19T16:48:20;2.30;;;1.40;;
12222;SDS011;6174;49.058;8.524;2023-09-19T16:50:48;1.73;;;1.30;;
12222;SDS011;6174;49.058;8.524;2023-09-19T16:53:15;2.70;;;1.10;;
12222;SDS011;6174;49.058;8.524;2023-09-19T16:55:43;1.93;;;1.40;;
12222;SDS011;6174;49.058;8.524;2023-09-19T16:58:11;1.97;;;1.30;;
12222;SDS011;6174;49.058;8.524;2023-09-19T17:00:38;2.13;;;1.43;;
12222;SDS011;6174;49.058;8.524;2023-09-19T17:03:05;1.83;;;1.30;;
12222;SDS011;6174;49.058;8.524;2023-09-19T17:05:33;2.30;;;1.40;;
12222;SDS011;6174;49.058;8.524;2023-09-19T17:08:04;1.40;;;1.30;;
12222;SDS011;6174;49.058;8.524;2023-09-19T17:10:32;1.47;;;1.30;;
12222;SDS011;6174;49.058;8.524;2023-09-19T17:13:00;2.17;;;1.33;;
12222;SDS011;6174;49.058;8.524;2023-09-19T17:15:32;1.33;;;1.20;;
12222;SDS011;6174;49.058;8.524;2023-09-19T17:17:59;2.20;;;1.30;;
12222;SDS011;6174;49.058;8.524;2023-09-19T17:20:25;1.77;;;1.50;;
12222;SDS011;6174;49.058;8.524;2023-09-19T17:22:53;2.27;;;1.50;;
12222;SDS011;6174;49.058;8.524;2023-09-19T17:25:20;1.57;;;1.47;;
12222;SDS011;6174;49.058;8.524;2023-09-19T17:27:47;1.63;;;1.50;;
12222;SDS011;6174;49.058;8.524;2023-09-19T17:30:16;3.27;;;1.40;;
12222;SDS011;6174;49.058;8.524;2023-09-19T17:32:44;2.60;;;1.57;;
12222;SDS011;6174;49.058;8.524;2023-09-19T17:35:12;2.37;;;1.60;;
12222;SDS011;6174;49.058;8.524;2023-09-19T17:37:43;1.90;;;1.70;;
12222;SDS011;6174;49.058;8.524;2023-09-19T17:40:10;1.60;;;1.50;;
12222;SDS011;6174;49.058;8.524;2023-09-19T17:42:38;1.53;;;1.43;;
12222;SDS011;6174;49.058;8.524;2023-09-19T17:45:07;2.40;;;1.80;;
12222;SDS011;6174;49.058;8.524;2023-09-19T17:47:40;2.57;;;2.00;;
12222;SDS011;6174;49.058;8.524;2023-09-19T17:50:09;2.53;;;1.80;;
12222;SDS011;6174;49.058;8.524;2023-09-19T17:52:38;2.37;;;1.80;;
12222;SDS011;6174;49.058;8.524;2023-09-19T18:06:54;3.33;;;1.93;;
12222;SDS011;6174;49.058;8.524;2023-09-19T18:09:21;2.80;;;2.00;;
12222;SDS011;6174;49.058;8.524;2023-09-19T18:11:48;2.43;;;1.90;;
12222;SDS011;6174;49.058;8.524;2023-09-19T18:14:14;2.07;;;1.80;;
12222;SDS011;6174;49.058;8.524;2023-09-19T18:16:43;1.80;;;1.70;;
12222;SDS011;6174;49.058;8.524;2023-09-19T18:19:10;1.93;;;1.70;;
12222;SDS011;6174;49.058;8.524;2023-09-19T18:21:37;2.00;;;1.50;;
12222;SDS011;6174;49.058;8.524;2023-09-19T18:24:07;2.40;;;1.70;;
12222;SDS011;6174;49.058;8.524;2023-09-19T18:26:39;3.47;;;1.80;;
12222;SDS011;6174;49.058;8.524;2023-09-19T18:29:07;3.27;;;1.70;;
12222;SDS011;6174;49.058;8.524;2023-09-19T18:31:35;4.10;;;1.80;;
12222;SDS011;6174;49.058;8.524;2023-09-19T18:34:02;2.90;;;2.00;;
12222;SDS011;6174;49.058;8.524;2023-09-19T18:36:29;3.03;;;2.07;;
12222;SDS011;6174;49.058;8.524;2023-09-19T18:38:56;3.53;;;2.20;;
12222;SDS011;6174;49.058;8.524;2023-09-19T18:41:26;2.80;;;1.77;;
12222;SDS011;6174;49.058;8.524;2023-09-19T18:43:53;2.43;;;2.23;;
12222;SDS011;6174;49.058;8.524;2023-09-19T18:46:19;2.33;;;2.10;;
12222;SDS011;6174;49.058;8.524;2023-09-19T18:48:46;2.47;;;2.00;;
12222;SDS011;6174;49.058;8.524;2023-09-19T18:51:13;3.00;;;1.90;;
12222;SDS011;6174;49.058;8.524;2023-09-19T18:53:43;3.17;;;2.23;;
12222;SDS011;6174;49.058;8.524;2023-09-19T18:56:11;2.57;;;2.37;;
12222;SDS011;6174;49.058;8.524;2023-09-19T18:58:40;3.80;;;2.13;;
12222;SDS011;6174;49.058;8.524;2023-09-19T19:01:08;2.20;;;2.00;;
12222;SDS011;6174;49.058;8.524;2023-09-19T19:03:36;3.10;;;1.93;;
12222;SDS011;6174;49.058;8.524;2023-09-19T19:06:04;1.93;;;1.60;;
12222;SDS011;6174;49.058;8.524;2023-09-19T19:08:31;1.53;;;1.27;;
12222;SDS011;6174;49.058;8.524;2023-09-19T19:10:58;2.87;;;1.77;;
12222;SDS011;6174;49.058;8.524;2023-09-19T19:13:25;1.70;;;1.60;;
12222;SDS011;6174;49.058;8.524;2023-09-19T19:15:57;1.60;;;1.50;;
12222;SDS011;6174;49.058;8.524;2023-09-19T19:18:25;1.43;;;1.37;;
12222;SDS011;6174;49.058;8.524;2023-09-19T19:20:58;1.70;;;1.60;;
12222;SDS011;6174;49.058;8.524;2023-09-19T19:23:25;1.80;;;1.60;;
12222;SDS011;6174;49.058;8.524;2023-09-19T19:25:53;2.40;;;1.50;;
12222;SDS011;6174;49.058;8.524;2023-09-19T19:28:24;2.17;;;1.60;;
12222;SDS011;6174;49.058;8.524;2023-09-19T19:30:51;1.63;;;1.40;;
12222;SDS011;6174;49.058;8.524;2023-09-19T19:33:19;2.20;;;1.80;;
12222;SDS011;6174;49.058;8.524;2023-09-19T19:35:49;2.57;;;1.50;;
12222;SDS011;6174;49.058;8.524;2023-09-19T19:38:16;1.63;;;1.53;;
12222;SDS011;6174;49.058;8.524;2023-09-19T19:40:44;1.63;;;1.40;;
12222;SDS011;6174;49.058;8.524;2023-09-19T19:43:13;1.73;;;1.63;;
12222;SDS011;6174;49.058;8.524;2023-09-19T19:45:40;1.80;;;1.33;;
12222;SDS011;6174;49.058;8.524;2023-09-19T19:48:07;3.70;;;1.60;;
12222;SDS011;6174;49.058;8.524;2023-09-19T19:50:38;2.03;;;1.50;;
12222;SDS011;6174;49.058;8.524;2023-09-19T19:53:06;2.50;;;1.40;;
12222;SDS011;6174;49.058;8.524;2023-09-19T19:55:33;2.27;;;1.37;;
12222;SDS011;6174;49.058;8.524;2023-09-19T19:58:00;1.43;;;1.33;;
12222;SDS011;6174;49.058;8.524;2023-09-19T20:00:28;1.60;;;1.50;;
12222;SDS011;6174;49.058;8.524;2023-09-19T20:02:57;2.00;;;1.60;;
12222;SDS011;6174;49.058;8.524;2023-09-19T20:05:23;1.40;;;1.30;;
12222;SDS011;6174;49.058;8.524;2023-09-19T20:07:52;2.00;;;1.60;;
12222;SDS011;6174;49.058;8.524;2023-09-19T20:10:19;1.70;;;1.60;;
12222;SDS011;6174;49.058;8.524;2023-09-19T20:12:48;1.87;;;1.57;;
12222;SDS011;6174;49.058;8.524;2023-09-19T20:15:15;2.03;;;1.63;;
12222;SDS011;6174;49.058;8.524;2023-09-19T20:17:42;3.13;;;1.57;;
12222;SDS011;6174;49.058;8.524;2023-09-19T20:20:09;2.50;;;1.57;;
12222;SDS011;6174;49.058;8.524;2023-09-19T20:22:40;1.80;;;1.50;;
12222;SDS011;6174;49.058;8.524;2023-09-19T20:25:08;2.43;;;1.67;;
12222;SDS011;6174;49.058;8.524;2023-09-19T20:27:36;4.07;;;2.80;;
12222;SDS011;6174;49.058;8.524;2023-09-19T20:30:05;3.73;;;2.43;;
12222;SDS011;6174;49.058;8.524;2023-09-19T20:32:34;2.20;;;2.00;;
12222;SDS011;6174;49.058;8.524;2023-09-19T20:35:01;1.90;;;1.70;;
12222;SDS011;6174;49.058;8.524;2023-09-19T20:37:28;3.03;;;1.70;;
12222;SDS011;6174;49.058;8.524;2023-09-19T20:39:55;1.30;;;1.20;;
12222;SDS011;6174;49.058;8.524;2023-09-19T20:42:23;1.93;;;1.67;;
12222;SDS011;6174;49.058;8.524;2023-09-19T20:44:50;2.07;;;1.50;;
12222;SDS011;6174;49.058;8.524;2023-09-19T20:47:20;2.80;;;1.60;;
12222;SDS011;6174;49.058;8.524;2023-09-19T20:49:47;2.13;;;1.80;;
12222;SDS011;6174;49.058;8.524;2023-09-19T20:52:14;2.57;;;1.70;;
12222;SDS011;6174;49.058;8.524;2023-09-19T20:54:41;1.77;;;1.67;;
12222;SDS011;6174;49.058;8.524;2023-09-19T20:57:08;1.47;;;1.37;;
12222;SDS011;6174;49.058;8.524;2023-09-19T20:59:36;1.73;;;1.60;;
12222;SDS011;6174;49.058;8.524;2023-09-19T21:02:04;1.63;;;1.53;;
12222;SDS011;6174;49.058;8.524;2023-09-19T21:04:31;2.70;;;1.60;;
12222;SDS011;6174;49.058;8.524;2023-09-19T21:06:58;1.73;;;1.63;;
12222;SDS011;6174;49.058;8.524;2023-09-19T21:09:25;1.77;;;1.67;;
12222;SDS011;6174;49.058;8.524;2023-09-19T21:11:52;2.83;;;1.50;;
12222;SDS011;6174;49.058;8.524;2023-09-19T21:14:20;3.70;;;1.73;;
12222;SDS011;6174;49.058;8.524;2023-09-19T21:16:48;2.70;;;1.73;;
12222;SDS011;6174;49.058;8.524;2023-09-19T21:21:51;2.30;;;1.60;;
12222;SDS011;6174;49.058;8.524;2023-09-19T21:24:25;2.70;;;1.67;;
12222;SDS011;6174;49.058;8.524;2023-09-19T21:26:56;2.00;;;1.73;;
12222;SDS011;6174;49.058;8.524;2023-09-19T21:29:25;2.00;;;1.80;;
12222;SDS011;6174;49.058;8.524;2023-09-19T21:31:55;1.53;;;1.40;;
12222;SDS011;6174;49.058;8.524;2023-09-19T21:34:23;1.60;;;1.50;;
12222;SDS011;6174;49.058;8.524;2023-09-19T21:36:50;1.80;;;1.70;;
12222;SDS011;6174;49.058;8.524;2023-09-19T21:39:19;2.10;;;1.63;;
12222;SDS011;6174;49.058;8.524;2023-09-19T21:41:47;2.00;;;1.67;;
12222;SDS011;6174;49.058;8.524;2023-09-19T21:44:14;2.13;;;1.87;;
12222;SDS011;6174;49.058;8.524;2023-09-19T21:46:43;2.13;;;1.60;;
12222;SDS011;6174;49.058;8.524;2023-09-19T21:49:14;3.00;;;1.90;;
12222;SDS011;6174;49.058;8.524;2023-09-19T21:51:42;2.53;;;1.80;;
12222;SDS011;6174;49.058;8.524;2023-09-19T21:54:10;2.10;;;1.63;;
12222;SDS011;6174;49.058;8.524;2023-09-19T21:56:39;1.90;;;1.60;;
12222;SDS011;6174;49.058;8.524;2023-09-19T21:59:13;1.60;;;1.50;;
12222;SDS011;6174;49.058;8.524;2023-09-19T22:01:42;3.00;;;1.47;;
12222;SDS011;6174;49.058;8.524;2023-09-19T22:04:09;2.97;;;1.60;;
12222;SDS011;6174;49.058;8.524;2023-09-19T22:06:40;2.27;;;1.30;;
12222;SDS011;6174;49.058;8.524;2023-09-19T22:09:07;1.80;;;1.50;;